Terminal Aerodrome Forecast
Issued by NWS Birmingham, AL

Home | Current Version | Previous Version | Text Only | Print | Product List | Glossary On
Versions: 1 2 3 4 5 6 7 8 9 10 11 12 13 14 15 16 17 18 19
919
FTUS44 KBMX 231624 AAB
TAFBHM
TAF AMD
KBHM 231624Z 2316/2412 25011KT P6SM VCSH FEW007 BKN015 OVC110
     FM231800 28012G20KT P6SM FEW007 BKN015 OVC110
     FM232100 31012G20KT P6SM BKN025
     FM240500 31010KT P6SM OVC015=

USA.gov is the U.S. government's official web portal to all federal, state and local government web resources and services.